sensor_id;sensor_type;location;lat;lon;timestamp;temperature;humidity
4811;DHT22;2419;51.276;6.472;2023-07-31T00:00:04;16.60;99.90
4811;DHT22;2419;51.276;6.472;2023-07-31T00:02:33;16.60;99.90
4811;DHT22;2419;51.276;6.472;2023-07-31T00:05:01;16.60;99.90
4811;DHT22;2419;51.276;6.472;2023-07-31T00:07:29;16.60;99.90
4811;DHT22;2419;51.276;6.472;2023-07-31T00:09:57;16.60;99.90
4811;DHT22;2419;51.276;6.472;2023-07-31T00:12:26;16.60;99.90
4811;DHT22;2419;51.276;6.472;2023-07-31T00:14:54;16.60;99.90
4811;DHT22;2419;51.276;6.472;2023-07-31T00:17:23;16.60;99.90
4811;DHT22;2419;51.276;6.472;2023-07-31T00:19:51;16.60;99.90
4811;DHT22;2419;51.276;6.472;2023-07-31T00:22:19;16.60;99.90
4811;DHT22;2419;51.276;6.472;2023-07-31T00:24:47;16.60;99.90
4811;DHT22;2419;51.276;6.472;2023-07-31T00:27:15;16.70;99.90
4811;DHT22;2419;51.276;6.472;2023-07-31T00:29:43;16.60;99.90
4811;DHT22;2419;51.276;6.472;2023-07-31T00:32:11;16.60;99.90
4811;DHT22;2419;51.276;6.472;2023-07-31T00:34:40;16.70;99.90
4811;DHT22;2419;51.276;6.472;2023-07-31T00:37:08;16.70;99.90
4811;DHT22;2419;51.276;6.472;2023-07-31T00:39:36;16.60;99.90
4811;DHT22;2419;51.276;6.472;2023-07-31T00:42:05;16.60;99.90
4811;DHT22;2419;51.276;6.472;2023-07-31T00:44:33;16.60;99.90
4811;DHT22;2419;51.276;6.472;2023-07-31T00:47:01;16.70;99.90
4811;DHT22;2419;51.276;6.472;2023-07-31T00:49:30;16.70;99.90
4811;DHT22;2419;51.276;6.472;2023-07-31T00:51:59;16.70;99.90
4811;DHT22;2419;51.276;6.472;2023-07-31T00:54:29;16.70;99.90
4811;DHT22;2419;51.276;6.472;2023-07-31T00:56:57;16.70;99.90
4811;DHT22;2419;51.276;6.472;2023-07-31T00:59:25;16.70;99.90
4811;DHT22;2419;51.276;6.472;2023-07-31T01:01:53;16.70;99.90
4811;DHT22;2419;51.276;6.472;2023-07-31T01:04:22;16.60;99.90
4811;DHT22;2419;51.276;6.472;2023-07-31T01:06:56;16.60;99.90
4811;DHT22;2419;51.276;6.472;2023-07-31T01:09:36;16.70;99.90
4811;DHT22;2419;51.276;6.472;2023-07-31T01:12:07;16.70;99.90
4811;DHT22;2419;51.276;6.472;2023-07-31T01:14:40;16.70;99.90
4811;DHT22;2419;51.276;6.472;2023-07-31T01:17:08;16.70;99.90
4811;DHT22;2419;51.276;6.472;2023-07-31T01:19:36;16.70;99.90
4811;DHT22;2419;51.276;6.472;2023-07-31T01:22:16;16.70;99.90
4811;DHT22;2419;51.276;6.472;2023-07-31T01:24:55;16.70;99.90
4811;DHT22;2419;51.276;6.472;2023-07-31T01:27:30;16.70;99.90
4811;DHT22;2419;51.276;6.472;2023-07-31T01:30:07;16.70;99.90
4811;DHT22;2419;51.276;6.472;2023-07-31T01:32:40;16.70;99.90
4811;DHT22;2419;51.276;6.472;2023-07-31T01:35:08;16.70;99.90
4811;DHT22;2419;51.276;6.472;2023-07-31T01:37:37;16.70;99.90
4811;DHT22;2419;51.276;6.472;2023-07-31T01:40:07;16.70;99.90
4811;DHT22;2419;51.276;6.472;2023-07-31T01:42:37;16.70;99.90
4811;DHT22;2419;51.276;6.472;2023-07-31T01:45:06;16.70;99.90
4811;DHT22;2419;51.276;6.472;2023-07-31T01:47:35;16.70;99.90
4811;DHT22;2419;51.276;6.472;2023-07-31T01:50:04;16.70;99.90
4811;DHT22;2419;51.276;6.472;2023-07-31T01:52:32;16.70;99.90
4811;DHT22;2419;51.276;6.472;2023-07-31T01:55:00;16.70;99.90
4811;DHT22;2419;51.276;6.472;2023-07-31T01:57:28;16.70;99.90
4811;DHT22;2419;51.276;6.472;2023-07-31T01:59:57;16.70;99.90
4811;DHT22;2419;51.276;6.472;2023-07-31T02:02:25;16.70;99.90
4811;DHT22;2419;51.276;6.472;2023-07-31T02:04:53;16.70;99.90
4811;DHT22;2419;51.276;6.472;2023-07-31T02:07:21;16.70;99.90
4811;DHT22;2419;51.276;6.472;2023-07-31T02:09:49;16.70;99.90
4811;DHT22;2419;51.276;6.472;2023-07-31T02:12:17;16.70;99.90
4811;DHT22;2419;51.276;6.472;2023-07-31T02:14:45;16.70;99.90
4811;DHT22;2419;51.276;6.472;2023-07-31T02:17:15;16.70;99.90
4811;DHT22;2419;51.276;6.472;2023-07-31T02:19:43;16.70;99.90
4811;DHT22;2419;51.276;6.472;2023-07-31T02:22:11;16.60;99.90
4811;DHT22;2419;51.276;6.472;2023-07-31T02:24:39;16.70;99.90
4811;DHT22;2419;51.276;6.472;2023-07-31T02:27:07;16.70;99.90
4811;DHT22;2419;51.276;6.472;2023-07-31T02:29:35;16.70;99.90
4811;DHT22;2419;51.276;6.472;2023-07-31T02:32:04;16.70;99.90
4811;DHT22;2419;51.276;6.472;2023-07-31T02:34:33;16.70;99.90
4811;DHT22;2419;51.276;6.472;2023-07-31T02:37:01;16.70;99.90
4811;DHT22;2419;51.276;6.472;2023-07-31T02:39:29;16.70;99.90
4811;DHT22;2419;51.276;6.472;2023-07-31T02:41:57;16.70;99.90
4811;DHT22;2419;51.276;6.472;2023-07-31T02:44:25;16.80;99.90
4811;DHT22;2419;51.276;6.472;2023-07-31T02:46:53;16.70;99.90
4811;DHT22;2419;51.276;6.472;2023-07-31T02:49:21;16.80;99.90
4811;DHT22;2419;51.276;6.472;2023-07-31T02:51:51;16.90;99.90
4811;DHT22;2419;51.276;6.472;2023-07-31T02:54:19;16.90;99.90
4811;DHT22;2419;51.276;6.472;2023-07-31T02:56:48;16.90;99.90
4811;DHT22;2419;51.276;6.472;2023-07-31T02:59:17;16.80;99.90
4811;DHT22;2419;51.276;6.472;2023-07-31T03:01:45;16.90;99.90
4811;DHT22;2419;51.276;6.472;2023-07-31T03:04:13;16.90;99.90
4811;DHT22;2419;51.276;6.472;2023-07-31T03:06:44;16.90;99.90
4811;DHT22;2419;51.276;6.472;2023-07-31T03:09:13;16.90;99.90
4811;DHT22;2419;51.276;6.472;2023-07-31T03:11:41;17.00;99.90
4811;DHT22;2419;51.276;6.472;2023-07-31T03:14:10;17.00;99.90
4811;DHT22;2419;51.276;6.472;2023-07-31T03:16:38;17.10;99.90
4811;DHT22;2419;51.276;6.472;2023-07-31T03:19:07;17.10;99.90
4811;DHT22;2419;51.276;6.472;2023-07-31T03:21:35;17.10;99.90
4811;DHT22;2419;51.276;6.472;2023-07-31T03:24:03;17.10;99.90
4811;DHT22;2419;51.276;6.472;2023-07-31T03:26:33;17.10;99.90
4811;DHT22;2419;51.276;6.472;2023-07-31T03:29:02;17.00;99.90
4811;DHT22;2419;51.276;6.472;2023-07-31T03:31:30;17.10;99.90
4811;DHT22;2419;51.276;6.472;2023-07-31T03:33:58;17.10;99.90
4811;DHT22;2419;51.276;6.472;2023-07-31T03:36:26;17.10;99.90
4811;DHT22;2419;51.276;6.472;2023-07-31T03:38:55;17.10;99.90
4811;DHT22;2419;51.276;6.472;2023-07-31T03:41:23;17.10;99.90
4811;DHT22;2419;51.276;6.472;2023-07-31T03:43:54;17.20;99.90
4811;DHT22;2419;51.276;6.472;2023-07-31T03:46:24;17.20;99.90
4811;DHT22;2419;51.276;6.472;2023-07-31T03:48:53;17.20;99.90
4811;DHT22;2419;51.276;6.472;2023-07-31T03:51:22;17.20;99.90
4811;DHT22;2419;51.276;6.472;2023-07-31T03:53:50;17.30;99.90
4811;DHT22;2419;51.276;6.472;2023-07-31T03:56:18;17.20;99.90
4811;DHT22;2419;51.276;6.472;2023-07-31T03:58:46;17.20;99.90
4811;DHT22;2419;51.276;6.472;2023-07-31T04:01:15;17.10;99.90
4811;DHT22;2419;51.276;6.472;2023-07-31T04:03:44;17.10;99.90
4811;DHT22;2419;51.276;6.472;2023-07-31T04:06:12;17.10;99.90
4811;DHT22;2419;51.276;6.472;2023-07-31T04:08:44;17.10;99.90
4811;DHT22;2419;51.276;6.472;2023-07-31T04:11:12;17.10;99.90
4811;DHT22;2419;51.276;6.472;2023-07-31T04:13:40;17.10;99.90
4811;DHT22;2419;51.276;6.472;2023-07-31T04:16:08;17.10;99.90
4811;DHT22;2419;51.276;6.472;2023-07-31T04:18:38;17.10;99.90
4811;DHT22;2419;51.276;6.472;2023-07-31T04:21:06;17.10;99.90
4811;DHT22;2419;51.276;6.472;2023-07-31T04:23:34;17.10;99.90
4811;DHT22;2419;51.276;6.472;2023-07-31T04:26:02;17.10;99.90
4811;DHT22;2419;51.276;6.472;2023-07-31T04:28:30;17.20;99.90
4811;DHT22;2419;51.276;6.472;2023-07-31T04:30:58;17.20;99.90
4811;DHT22;2419;51.276;6.472;2023-07-31T04:33:26;17.20;99.90
4811;DHT22;2419;51.276;6.472;2023-07-31T04:35:56;17.20;99.90
4811;DHT22;2419;51.276;6.472;2023-07-31T04:38:25;17.20;99.90
4811;DHT22;2419;51.276;6.472;2023-07-31T04:40:53;17.20;99.90
4811;DHT22;2419;51.276;6.472;2023-07-31T04:43:21;17.20;99.90
4811;DHT22;2419;51.276;6.472;2023-07-31T04:45:49;17.20;99.90
4811;DHT22;2419;51.276;6.472;2023-07-31T04:48:17;17.10;99.90
4811;DHT22;2419;51.276;6.472;2023-07-31T04:50:45;17.20;99.90
4811;DHT22;2419;51.276;6.472;2023-07-31T04:53:14;17.30;99.90
4811;DHT22;2419;51.276;6.472;2023-07-31T04:55:42;17.20;99.90
4811;DHT22;2419;51.276;6.472;2023-07-31T04:58:11;17.20;99.90
4811;DHT22;2419;51.276;6.472;2023-07-31T05:00:39;17.30;99.90
4811;DHT22;2419;51.276;6.472;2023-07-31T05:03:07;17.30;99.90
4811;DHT22;2419;51.276;6.472;2023-07-31T05:05:36;17.30;99.90
4811;DHT22;2419;51.276;6.472;2023-07-31T05:08:04;17.30;99.90
4811;DHT22;2419;51.276;6.472;2023-07-31T05:10:33;17.30;99.90
4811;DHT22;2419;51.276;6.472;2023-07-31T05:13:01;17.30;99.90
4811;DHT22;2419;51.276;6.472;2023-07-31T05:15:30;17.40;99.90
4811;DHT22;2419;51.276;6.472;2023-07-31T05:18:00;17.40;99.90
4811;DHT22;2419;51.276;6.472;2023-07-31T05:20:28;17.40;99.90
4811;DHT22;2419;51.276;6.472;2023-07-31T05:22:56;17.50;99.90
4811;DHT22;2419;51.276;6.472;2023-07-31T05:25:24;17.50;99.90
4811;DHT22;2419;51.276;6.472;2023-07-31T05:27:55;17.50;99.90
4811;DHT22;2419;51.276;6.472;2023-07-31T05:30:23;17.40;99.90
4811;DHT22;2419;51.276;6.472;2023-07-31T05:32:52;17.50;99.90
4811;DHT22;2419;51.276;6.472;2023-07-31T05:35:20;17.50;99.90
4811;DHT22;2419;51.276;6.472;2023-07-31T05:37:48;17.60;99.90
4811;DHT22;2419;51.276;6.472;2023-07-31T05:40:16;17.60;99.90
4811;DHT22;2419;51.276;6.472;2023-07-31T05:42:44;17.60;99.90
4811;DHT22;2419;51.276;6.472;2023-07-31T05:45:14;17.60;99.90
4811;DHT22;2419;51.276;6.472;2023-07-31T05:47:42;17.60;99.90
4811;DHT22;2419;51.276;6.472;2023-07-31T05:50:10;17.60;99.90
4811;DHT22;2419;51.276;6.472;2023-07-31T05:52:38;17.50;99.90
4811;DHT22;2419;51.276;6.472;2023-07-31T05:55:06;17.50;99.90
4811;DHT22;2419;51.276;6.472;2023-07-31T05:57:34;17.40;99.90
4811;DHT22;2419;51.276;6.472;2023-07-31T06:00:03;17.30;99.90
4811;DHT22;2419;51.276;6.472;2023-07-31T06:02:34;17.20;99.90
4811;DHT22;2419;51.276;6.472;2023-07-31T06:05:04;17.10;99.90
4811;DHT22;2419;51.276;6.472;2023-07-31T06:07:33;17.00;99.90
4811;DHT22;2419;51.276;6.472;2023-07-31T06:10:01;17.00;99.90
4811;DHT22;2419;51.276;6.472;2023-07-31T06:12:31;16.90;99.90
4811;DHT22;2419;51.276;6.472;2023-07-31T06:14:59;16.90;99.90
4811;DHT22;2419;51.276;6.472;2023-07-31T06:17:28;16.90;99.90
4811;DHT22;2419;51.276;6.472;2023-07-31T06:19:57;16.90;99.90
4811;DHT22;2419;51.276;6.472;2023-07-31T06:22:25;16.90;99.90
4811;DHT22;2419;51.276;6.472;2023-07-31T06:24:53;16.90;99.90
4811;DHT22;2419;51.276;6.472;2023-07-31T06:27:21;16.90;99.90
4811;DHT22;2419;51.276;6.472;2023-07-31T06:29:50;16.90;99.90
4811;DHT22;2419;51.276;6.472;2023-07-31T06:32:18;16.80;99.90
4811;DHT22;2419;51.276;6.472;2023-07-31T06:34:46;16.80;99.90
4811;DHT22;2419;51.276;6.472;2023-07-31T06:37:15;16.90;99.90
4811;DHT22;2419;51.276;6.472;2023-07-31T06:39:43;16.80;99.90
4811;DHT22;2419;51.276;6.472;2023-07-31T06:42:11;16.80;99.90
4811;DHT22;2419;51.276;6.472;2023-07-31T06:44:39;16.90;99.90
4811;DHT22;2419;51.276;6.472;2023-07-31T06:47:07;16.90;99.90
4811;DHT22;2419;51.276;6.472;2023-07-31T06:49:35;16.90;99.90
4811;DHT22;2419;51.276;6.472;2023-07-31T06:52:04;16.80;99.90
4811;DHT22;2419;51.276;6.472;2023-07-31T06:54:33;16.90;99.90
4811;DHT22;2419;51.276;6.472;2023-07-31T06:57:01;16.80;99.90
4811;DHT22;2419;51.276;6.472;2023-07-31T06:59:30;16.80;99.90
4811;DHT22;2419;51.276;6.472;2023-07-31T07:01:58;16.70;99.90
4811;DHT22;2419;51.276;6.472;2023-07-31T07:04:26;16.70;99.90
4811;DHT22;2419;51.276;6.472;2023-07-31T07:06:54;16.60;99.90
4811;DHT22;2419;51.276;6.472;2023-07-31T07:09:22;16.60;99.90
4811;DHT22;2419;51.276;6.472;2023-07-31T07:11:55;16.60;99.90
4811;DHT22;2419;51.276;6.472;2023-07-31T07:14:23;16.50;99.90
4811;DHT22;2419;51.276;6.472;2023-07-31T07:16:51;16.60;99.90
4811;DHT22;2419;51.276;6.472;2023-07-31T07:19:19;16.60;99.90
4811;DHT22;2419;51.276;6.472;2023-07-31T07:21:47;16.60;99.90
4811;DHT22;2419;51.276;6.472;2023-07-31T07:24:15;16.60;99.90
4811;DHT22;2419;51.276;6.472;2023-07-31T07:26:44;16.60;99.90
4811;DHT22;2419;51.276;6.472;2023-07-31T07:29:13;16.60;99.90
4811;DHT22;2419;51.276;6.472;2023-07-31T07:31:41;16.60;99.90
4811;DHT22;2419;51.276;6.472;2023-07-31T07:34:09;16.60;99.90
4811;DHT22;2419;51.276;6.472;2023-07-31T07:36:37;16.60;99.90
4811;DHT22;2419;51.276;6.472;2023-07-31T07:39:06;16.50;99.90
4811;DHT22;2419;51.276;6.472;2023-07-31T07:41:34;16.50;99.90
4811;DHT22;2419;51.276;6.472;2023-07-31T07:44:02;16.40;99.90
4811;DHT22;2419;51.276;6.472;2023-07-31T07:46:32;16.40;99.90
4811;DHT22;2419;51.276;6.472;2023-07-31T07:49:00;16.40;99.90
4811;DHT22;2419;51.276;6.472;2023-07-31T07:51:28;16.50;99.90
4811;DHT22;2419;51.276;6.472;2023-07-31T07:53:58;16.50;99.90
4811;DHT22;2419;51.276;6.472;2023-07-31T07:56:26;16.50;99.90
4811;DHT22;2419;51.276;6.472;2023-07-31T07:58:55;16.60;99.90
4811;DHT22;2419;51.276;6.472;2023-07-31T08:01:23;16.70;99.90
4811;DHT22;2419;51.276;6.472;2023-07-31T08:03:52;16.70;99.90
4811;DHT22;2419;51.276;6.472;2023-07-31T08:06:20;16.70;99.90
4811;DHT22;2419;51.276;6.472;2023-07-31T08:08:49;16.70;99.90
4811;DHT22;2419;51.276;6.472;2023-07-31T08:11:17;16.60;99.90
4811;DHT22;2419;51.276;6.472;2023-07-31T08:13:46;16.60;99.90
4811;DHT22;2419;51.276;6.472;2023-07-31T08:16:14;16.50;99.90
4811;DHT22;2419;51.276;6.472;2023-07-31T08:18:42;16.50;99.90
4811;DHT22;2419;51.276;6.472;2023-07-31T08:21:11;16.50;99.90
4811;DHT22;2419;51.276;6.472;2023-07-31T08:23:39;16.40;99.90
4811;DHT22;2419;51.276;6.472;2023-07-31T08:26:07;16.40;99.90
4811;DHT22;2419;51.276;6.472;2023-07-31T08:28:35;16.50;99.90
4811;DHT22;2419;51.276;6.472;2023-07-31T08:31:04;16.50;99.90
4811;DHT22;2419;51.276;6.472;2023-07-31T08:33:32;16.50;99.90
4811;DHT22;2419;51.276;6.472;2023-07-31T08:36:00;16.50;99.90
4811;DHT22;2419;51.276;6.472;2023-07-31T08:38:30;16.70;99.90
4811;DHT22;2419;51.276;6.472;2023-07-31T08:40:58;16.70;99.90
4811;DHT22;2419;51.276;6.472;2023-07-31T08:43:27;16.80;99.90
4811;DHT22;2419;51.276;6.472;2023-07-31T08:45:55;16.80;99.90
4811;DHT22;2419;51.276;6.472;2023-07-31T08:48:23;16.80;99.90
4811;DHT22;2419;51.276;6.472;2023-07-31T08:50:52;16.90;99.90
4811;DHT22;2419;51.276;6.472;2023-07-31T08:53:21;16.80;99.90
4811;DHT22;2419;51.276;6.472;2023-07-31T08:55:52;16.70;99.90
4811;DHT22;2419;51.276;6.472;2023-07-31T08:58:21;16.70;99.90
4811;DHT22;2419;51.276;6.472;2023-07-31T09:00:50;16.60;99.90
4811;DHT22;2419;51.276;6.472;2023-07-31T09:03:23;16.60;99.90
4811;DHT22;2419;51.276;6.472;2023-07-31T09:05:53;16.60;99.90
4811;DHT22;2419;51.276;6.472;2023-07-31T09:08:23;16.60;99.90
4811;DHT22;2419;51.276;6.472;2023-07-31T09:10:53;16.60;99.90
4811;DHT22;2419;51.276;6.472;2023-07-31T09:13:22;16.70;99.90
4811;DHT22;2419;51.276;6.472;2023-07-31T09:15:50;16.70;99.90
4811;DHT22;2419;51.276;6.472;2023-07-31T09:18:18;16.70;99.90
4811;DHT22;2419;51.276;6.472;2023-07-31T09:21:01;16.70;99.90
4811;DHT22;2419;51.276;6.472;2023-07-31T09:23:40;16.70;99.90
4811;DHT22;2419;51.276;6.472;2023-07-31T09:26:10;16.70;99.90
4811;DHT22;2419;51.276;6.472;2023-07-31T09:28:38;16.80;99.90
4811;DHT22;2419;51.276;6.472;2023-07-31T09:31:07;16.80;99.90
4811;DHT22;2419;51.276;6.472;2023-07-31T09:33:54;16.80;99.90
4811;DHT22;2419;51.276;6.472;2023-07-31T09:36:22;16.70;99.90
4811;DHT22;2419;51.276;6.472;2023-07-31T09:38:50;16.80;99.90
4811;DHT22;2419;51.276;6.472;2023-07-31T09:41:20;16.80;99.90
4811;DHT22;2419;51.276;6.472;2023-07-31T09:43:53;16.90;99.90
4811;DHT22;2419;51.276;6.472;2023-07-31T09:46:21;16.90;99.90
4811;DHT22;2419;51.276;6.472;2023-07-31T09:48:49;16.90;99.90
4811;DHT22;2419;51.276;6.472;2023-07-31T09:51:26;16.90;99.90
4811;DHT22;2419;51.276;6.472;2023-07-31T09:53:54;16.80;99.90
4811;DHT22;2419;51.276;6.472;2023-07-31T09:56:23;16.90;99.90
4811;DHT22;2419;51.276;6.472;2023-07-31T09:58:52;16.90;99.90
4811;DHT22;2419;51.276;6.472;2023-07-31T10:01:21;17.00;99.90
4811;DHT22;2419;51.276;6.472;2023-07-31T10:03:49;16.90;99.90
4811;DHT22;2419;51.276;6.472;2023-07-31T10:06:18;17.00;99.90
4811;DHT22;2419;51.276;6.472;2023-07-31T10:08:47;17.10;99.90
4811;DHT22;2419;51.276;6.472;2023-07-31T10:11:17;17.10;99.90
4811;DHT22;2419;51.276;6.472;2023-07-31T10:13:46;17.20;99.90
4811;DHT22;2419;51.276;6.472;2023-07-31T10:16:16;17.30;99.90
4811;DHT22;2419;51.276;6.472;2023-07-31T10:18:45;17.40;99.90
4811;DHT22;2419;51.276;6.472;2023-07-31T10:21:14;17.40;99.90
4811;DHT22;2419;51.276;6.472;2023-07-31T10:23:43;17.50;99.90
4811;DHT22;2419;51.276;6.472;2023-07-31T10:26:13;17.50;99.90
4811;DHT22;2419;51.276;6.472;2023-07-31T10:28:43;17.50;99.90
4811;DHT22;2419;51.276;6.472;2023-07-31T10:31:13;17.60;99.90
4811;DHT22;2419;51.276;6.472;2023-07-31T10:33:42;17.70;99.90
4811;DHT22;2419;51.276;6.472;2023-07-31T10:36:13;17.80;99.90
4811;DHT22;2419;51.276;6.472;2023-07-31T10:38:42;17.80;99.90
4811;DHT22;2419;51.276;6.472;2023-07-31T10:41:10;17.80;99.90
4811;DHT22;2419;51.276;6.472;2023-07-31T10:43:38;17.80;99.90
4811;DHT22;2419;51.276;6.472;2023-07-31T10:46:07;17.80;99.90
4811;DHT22;2419;51.276;6.472;2023-07-31T10:48:38;17.70;99.90
4811;DHT22;2419;51.276;6.472;2023-07-31T10:51:09;17.80;99.90
4811;DHT22;2419;51.276;6.472;2023-07-31T10:53:39;17.80;99.90
4811;DHT22;2419;51.276;6.472;2023-07-31T10:56:09;17.90;99.90
4811;DHT22;2419;51.276;6.472;2023-07-31T10:58:39;17.90;99.90
4811;DHT22;2419;51.276;6.472;2023-07-31T11:01:07;17.90;99.90
4811;DHT22;2419;51.276;6.472;2023-07-31T11:03:47;17.90;99.90
4811;DHT22;2419;51.276;6.472;2023-07-31T11:06:16;17.90;99.90
4811;DHT22;2419;51.276;6.472;2023-07-31T11:08:47;17.90;99.90
4811;DHT22;2419;51.276;6.472;2023-07-31T11:11:17;18.00;99.90
4811;DHT22;2419;51.276;6.472;2023-07-31T11:13:46;18.00;99.90
4811;DHT22;2419;51.276;6.472;2023-07-31T11:16:17;18.00;99.90
4811;DHT22;2419;51.276;6.472;2023-07-31T11:18:48;18.00;99.90
4811;DHT22;2419;51.276;6.472;2023-07-31T11:21:19;18.00;99.90
4811;DHT22;2419;51.276;6.472;2023-07-31T11:23:48;18.00;99.90
4811;DHT22;2419;51.276;6.472;2023-07-31T11:26:17;18.00;99.90
4811;DHT22;2419;51.276;6.472;2023-07-31T11:28:47;18.00;99.90
4811;DHT22;2419;51.276;6.472;2023-07-31T11:31:15;18.00;99.90
4811;DHT22;2419;51.276;6.472;2023-07-31T11:33:44;18.10;99.90
4811;DHT22;2419;51.276;6.472;2023-07-31T11:36:16;18.10;99.90
4811;DHT22;2419;51.276;6.472;2023-07-31T11:38:45;18.10;99.90
4811;DHT22;2419;51.276;6.472;2023-07-31T11:41:15;18.00;99.90
4811;DHT22;2419;51.276;6.472;2023-07-31T11:43:45;18.00;99.90
4811;DHT22;2419;51.276;6.472;2023-07-31T11:46:13;18.10;99.90
4811;DHT22;2419;51.276;6.472;2023-07-31T11:48:42;18.20;99.90
4811;DHT22;2419;51.276;6.472;2023-07-31T11:51:12;18.20;99.90
4811;DHT22;2419;51.276;6.472;2023-07-31T11:53:44;18.20;99.90
4811;DHT22;2419;51.276;6.472;2023-07-31T11:56:17;18.20;99.90
4811;DHT22;2419;51.276;6.472;2023-07-31T11:58:46;18.20;99.90
4811;DHT22;2419;51.276;6.472;2023-07-31T12:01:16;18.20;99.90
4811;DHT22;2419;51.276;6.472;2023-07-31T12:03:47;18.30;99.90
4811;DHT22;2419;51.276;6.472;2023-07-31T12:06:15;18.20;99.90
4811;DHT22;2419;51.276;6.472;2023-07-31T12:08:44;18.20;99.90
4811;DHT22;2419;51.276;6.472;2023-07-31T12:11:13;18.20;99.90
4811;DHT22;2419;51.276;6.472;2023-07-31T12:13:41;18.20;99.90
4811;DHT22;2419;51.276;6.472;2023-07-31T12:16:09;18.20;99.90
4811;DHT22;2419;51.276;6.472;2023-07-31T12:18:38;18.20;99.90
4811;DHT22;2419;51.276;6.472;2023-07-31T12:21:08;18.20;99.90
4811;DHT22;2419;51.276;6.472;2023-07-31T12:23:38;18.20;99.90
4811;DHT22;2419;51.276;6.472;2023-07-31T12:26:11;18.20;99.90
4811;DHT22;2419;51.276;6.472;2023-07-31T12:28:41;18.20;99.90
4811;DHT22;2419;51.276;6.472;2023-07-31T12:31:10;18.20;99.90
4811;DHT22;2419;51.276;6.472;2023-07-31T12:33:40;18.20;99.90
4811;DHT22;2419;51.276;6.472;2023-07-31T12:36:10;18.20;99.90
4811;DHT22;2419;51.276;6.472;2023-07-31T12:38:38;18.20;99.90
4811;DHT22;2419;51.276;6.472;2023-07-31T12:41:07;18.30;99.90
4811;DHT22;2419;51.276;6.472;2023-07-31T12:43:40;18.30;99.90
4811;DHT22;2419;51.276;6.472;2023-07-31T12:46:09;18.30;99.90
4811;DHT22;2419;51.276;6.472;2023-07-31T12:48:38;18.50;99.90
4811;DHT22;2419;51.276;6.472;2023-07-31T12:51:07;18.60;99.90
4811;DHT22;2419;51.276;6.472;2023-07-31T12:53:35;18.60;99.90
4811;DHT22;2419;51.276;6.472;2023-07-31T12:56:03;18.60;99.90
4811;DHT22;2419;51.276;6.472;2023-07-31T12:58:32;18.60;99.90
4811;DHT22;2419;51.276;6.472;2023-07-31T13:01:01;18.70;99.90
4811;DHT22;2419;51.276;6.472;2023-07-31T13:03:29;18.60;99.90
4811;DHT22;2419;51.276;6.472;2023-07-31T13:05:58;18.60;99.90
4811;DHT22;2419;51.276;6.472;2023-07-31T13:08:26;18.50;99.90
4811;DHT22;2419;51.276;6.472;2023-07-31T13:10:54;18.50;99.90
4811;DHT22;2419;51.276;6.472;2023-07-31T13:13:22;18.50;99.90
4811;DHT22;2419;51.276;6.472;2023-07-31T13:15:50;18.60;99.90
4811;DHT22;2419;51.276;6.472;2023-07-31T13:18:19;18.60;99.90
4811;DHT22;2419;51.276;6.472;2023-07-31T13:20:47;18.70;99.90
4811;DHT22;2419;51.276;6.472;2023-07-31T13:23:15;18.80;99.90
4811;DHT22;2419;51.276;6.472;2023-07-31T13:25:43;18.90;99.90
4811;DHT22;2419;51.276;6.472;2023-07-31T13:28:11;19.00;99.90
4811;DHT22;2419;51.276;6.472;2023-07-31T13:30:39;19.10;99.90
4811;DHT22;2419;51.276;6.472;2023-07-31T13:33:07;19.30;99.90
4811;DHT22;2419;51.276;6.472;2023-07-31T13:35:56;19.40;99.90
4811;DHT22;2419;51.276;6.472;2023-07-31T13:38:24;19.50;99.90
4811;DHT22;2419;51.276;6.472;2023-07-31T13:40:52;19.50;99.90
4811;DHT22;2419;51.276;6.472;2023-07-31T13:43:20;19.60;99.90
4811;DHT22;2419;51.276;6.472;2023-07-31T13:45:49;19.60;99.90
4811;DHT22;2419;51.276;6.472;2023-07-31T13:48:17;19.60;99.90
4811;DHT22;2419;51.276;6.472;2023-07-31T13:50:45;19.50;99.90
4811;DHT22;2419;51.276;6.472;2023-07-31T13:53:14;19.40;99.90
4811;DHT22;2419;51.276;6.472;2023-07-31T13:55:42;19.40;99.90
4811;DHT22;2419;51.276;6.472;2023-07-31T13:58:12;19.40;99.90
4811;DHT22;2419;51.276;6.472;2023-07-31T14:00:40;19.30;99.90
4811;DHT22;2419;51.276;6.472;2023-07-31T14:03:08;19.30;99.90
4811;DHT22;2419;51.276;6.472;2023-07-31T14:05:37;19.20;99.90
4811;DHT22;2419;51.276;6.472;2023-07-31T14:08:05;19.20;99.90
4811;DHT22;2419;51.276;6.472;2023-07-31T14:10:35;19.30;99.90
4811;DHT22;2419;51.276;6.472;2023-07-31T14:13:03;19.30;99.90
4811;DHT22;2419;51.276;6.472;2023-07-31T14:15:31;19.30;99.90
4811;DHT22;2419;51.276;6.472;2023-07-31T14:18:02;19.30;99.90
4811;DHT22;2419;51.276;6.472;2023-07-31T14:20:31;19.30;99.90
4811;DHT22;2419;51.276;6.472;2023-07-31T14:22:59;19.40;99.90
4811;DHT22;2419;51.276;6.472;2023-07-31T14:25:27;19.40;99.90
4811;DHT22;2419;51.276;6.472;2023-07-31T14:27:57;19.30;99.90
4811;DHT22;2419;51.276;6.472;2023-07-31T14:30:25;19.30;99.90
4811;DHT22;2419;51.276;6.472;2023-07-31T14:32:53;19.30;99.90
4811;DHT22;2419;51.276;6.472;2023-07-31T14:35:21;19.20;99.90
4811;DHT22;2419;51.276;6.472;2023-07-31T14:37:49;19.30;99.90
4811;DHT22;2419;51.276;6.472;2023-07-31T14:40:19;19.20;99.90
4811;DHT22;2419;51.276;6.472;2023-07-31T14:42:47;19.20;99.90
4811;DHT22;2419;51.276;6.472;2023-07-31T14:45:17;19.30;99.90
4811;DHT22;2419;51.276;6.472;2023-07-31T14:47:45;19.30;99.90
4811;DHT22;2419;51.276;6.472;2023-07-31T14:50:13;19.40;99.90
4811;DHT22;2419;51.276;6.472;2023-07-31T14:52:41;19.30;99.90
4811;DHT22;2419;51.276;6.472;2023-07-31T14:55:09;19.30;99.90
4811;DHT22;2419;51.276;6.472;2023-07-31T14:57:37;19.40;99.90
4811;DHT22;2419;51.276;6.472;2023-07-31T15:00:08;19.40;99.90
4811;DHT22;2419;51.276;6.472;2023-07-31T15:02:38;19.40;99.90
4811;DHT22;2419;51.276;6.472;2023-07-31T15:05:08;19.40;99.90
4811;DHT22;2419;51.276;6.472;2023-07-31T15:07:36;19.40;99.90
4811;DHT22;2419;51.276;6.472;2023-07-31T15:10:07;19.40;99.90
4811;DHT22;2419;51.276;6.472;2023-07-31T15:12:36;19.50;99.90
4811;DHT22;2419;51.276;6.472;2023-07-31T15:15:05;19.40;99.90
4811;DHT22;2419;51.276;6.472;2023-07-31T15:17:33;19.40;99.90
4811;DHT22;2419;51.276;6.472;2023-07-31T15:20:04;19.40;99.90
4811;DHT22;2419;51.276;6.472;2023-07-31T15:22:32;19.50;99.90
4811;DHT22;2419;51.276;6.472;2023-07-31T15:25:00;19.40;99.90
4811;DHT22;2419;51.276;6.472;2023-07-31T15:27:28;19.40;99.90
4811;DHT22;2419;51.276;6.472;2023-07-31T15:29:56;19.30;99.90
4811;DHT22;2419;51.276;6.472;2023-07-31T15:32:24;19.10;99.90
4811;DHT22;2419;51.276;6.472;2023-07-31T15:34:52;19.00;99.90
4811;DHT22;2419;51.276;6.472;2023-07-31T15:37:22;18.80;99.90
4811;DHT22;2419;51.276;6.472;2023-07-31T15:39:50;18.80;99.90
4811;DHT22;2419;51.276;6.472;2023-07-31T15:42:18;18.70;99.90
4811;DHT22;2419;51.276;6.472;2023-07-31T15:44:46;18.60;99.90
4811;DHT22;2419;51.276;6.472;2023-07-31T15:47:14;18.60;99.90
4811;DHT22;2419;51.276;6.472;2023-07-31T15:49:42;18.50;99.90
4811;DHT22;2419;51.276;6.472;2023-07-31T15:52:10;18.40;99.90
4811;DHT22;2419;51.276;6.472;2023-07-31T15:54:40;18.40;99.90
4811;DHT22;2419;51.276;6.472;2023-07-31T15:57:08;18.40;99.90
4811;DHT22;2419;51.276;6.472;2023-07-31T15:59:36;18.30;99.90
4811;DHT22;2419;51.276;6.472;2023-07-31T16:02:04;18.30;99.90
4811;DHT22;2419;51.276;6.472;2023-07-31T16:04:32;18.30;99.90
4811;DHT22;2419;51.276;6.472;2023-07-31T16:07:00;18.30;99.90
4811;DHT22;2419;51.276;6.472;2023-07-31T16:09:28;18.30;99.90
4811;DHT22;2419;51.276;6.472;2023-07-31T16:11:58;18.30;99.90